Time;durP1;ratioP1;P1;durP2;ratioP2;P2;SDS_P1;SDS_P2;PMS_P1;PMS_P2;Temp;Humidity;BMP_temperature;BMP_pressure;BME280_temperature;BME280_humidity;BME280_pressure;Samples;Min_cycle;Max_cycle;Signal;HPM_P1;HPM_P2
2024/01/19 00:00:46;;;;;;;;;;;-2.00;99.90;;;;;;5067242;28;19937;-80
2024/01/19 00:03:12;;;;;;;;;;;-1.90;99.90;;;;;;5074471;28;19967;-80
2024/01/19 00:05:37;;;;;;;;;;;-1.80;99.90;;;;;;5091633;28;20004;-80
2024/01/19 00:08:03;;;;;;;;;;;-1.80;99.90;;;;;;5091107;28;20000;-80
2024/01/19 00:10:30;;;;;;;;;;;-1.80;99.90;;;;;;5089853;28;20348;-81
2024/01/19 00:12:56;;;;;;;;;;;-1.80;99.90;;;;;;5083507;28;19983;-80
2024/01/19 00:15:21;;;;;;;;;;;-1.80;99.90;;;;;;5068549;28;20952;-80
2024/01/19 00:17:47;;;;;;;;;;;-1.80;99.90;;;;;;5062350;28;20079;-80
2024/01/19 00:20:12;;;;;;;;;;;-1.80;99.90;;;;;;5066387;28;20402;-80
2024/01/19 00:22:38;;;;;;;;;;;-1.80;99.90;;;;;;5068671;28;19933;-80
2024/01/19 00:25:04;;;;;;;;;;;-1.80;99.90;;;;;;5064732;28;19938;-80
2024/01/19 00:27:29;;;;;;;;;;;-1.80;99.90;;;;;;5055776;28;20326;-80
2024/01/19 00:29:55;;;;;;;;;;;-1.80;99.90;;;;;;5070563;28;19974;-80
2024/01/19 00:32:20;;;;;;;;;;;-1.90;99.90;;;;;;5063174;28;19933;-80
2024/01/19 00:34:46;;;;;;;;;;;-1.90;99.90;;;;;;5062240;28;19944;-80
2024/01/19 00:37:11;;;;;;;;;;;-2.00;99.90;;;;;;5064714;28;19967;-80
2024/01/19 00:39:37;;;;;;;;;;;-2.10;99.90;;;;;;5065877;28;20142;-80
2024/01/19 00:42:03;;;;;;;;;;;-2.20;99.90;;;;;;5067139;28;20417;-79
2024/01/19 00:44:28;;;;;;;;;;;-2.20;99.90;;;;;;5058354;28;20027;-80
2024/01/19 00:46:54;;;;;;;;;;;-2.20;99.90;;;;;;5052756;28;19951;-81
2024/01/19 00:49:19;;;;;;;;;;;-2.30;99.90;;;;;;5053291;28;19944;-80
2024/01/19 00:51:45;;;;;;;;;;;-2.30;99.90;;;;;;5055471;28;19944;-81
2024/01/19 00:54:10;;;;;;;;;;;-2.30;99.90;;;;;;5058883;28;20374;-81
2024/01/19 00:56:36;;;;;;;;;;;-2.20;99.90;;;;;;5056718;28;19949;-80
2024/01/19 00:59:01;;;;;;;;;;;-2.10;99.90;;;;;;5052053;28;19935;-80
2024/01/19 01:01:27;;;;;;;;;;;-2.00;99.90;;;;;;5053791;28;19936;-80
2024/01/19 01:03:55;;;;;;;;;;;-2.00;99.90;;;;;;5052546;28;20012;-80
2024/01/19 01:06:20;;;;;;;;;;;-2.00;99.90;;;;;;5055666;28;19945;-80
2024/01/19 01:08:46;;;;;;;;;;;-2.20;99.90;;;;;;5053556;28;19947;-80
2024/01/19 01:11:11;;;;;;;;;;;-2.20;99.90;;;;;;5055075;28;19929;-81
2024/01/19 01:13:37;;;;;;;;;;;-2.20;99.90;;;;;;5051712;28;19970;-81
2024/01/19 01:16:03;;;;;;;;;;;-2.40;99.90;;;;;;5057860;28;19961;-81
2024/01/19 01:18:28;;;;;;;;;;;-2.40;99.90;;;;;;5050481;28;20022;-80
2024/01/19 01:20:54;;;;;;;;;;;-2.40;99.90;;;;;;5056652;28;20408;-80
2024/01/19 01:23:19;;;;;;;;;;;-2.30;99.90;;;;;;5057043;28;19991;-81
2024/01/19 01:25:45;;;;;;;;;;;-2.30;99.90;;;;;;5056594;28;19960;-80
2024/01/19 01:28:10;;;;;;;;;;;-2.20;99.90;;;;;;5052787;28;19936;-80
2024/01/19 01:30:37;;;;;;;;;;;-2.20;99.90;;;;;;5055674;28;20460;-81
2024/01/19 01:33:03;;;;;;;;;;;-2.20;99.90;;;;;;5051704;28;20029;-80
2024/01/19 01:35:28;;;;;;;;;;;-2.20;99.90;;;;;;5047574;28;20351;-81
2024/01/19 01:37:54;;;;;;;;;;;-2.20;99.90;;;;;;5045340;28;19963;-81
2024/01/19 01:40:20;;;;;;;;;;;-2.10;99.90;;;;;;5047114;28;20200;-80
2024/01/19 01:42:46;;;;;;;;;;;-2.10;99.90;;;;;;5052388;28;19939;-81
2024/01/19 01:45:11;;;;;;;;;;;-2.20;99.90;;;;;;5065456;28;19964;-79
2024/01/19 01:47:37;;;;;;;;;;;-2.30;99.90;;;;;;5062204;28;20038;-80
2024/01/19 01:50:04;;;;;;;;;;;-2.40;99.90;;;;;;5064037;28;19942;-80
2024/01/19 01:52:29;;;;;;;;;;;-2.40;99.90;;;;;;5066111;28;19980;-80
2024/01/19 01:54:55;;;;;;;;;;;-2.40;99.90;;;;;;5073668;28;19977;-80
2024/01/19 01:57:22;;;;;;;;;;;-2.30;99.90;;;;;;5069072;28;20714;-80
2024/01/19 01:59:48;;;;;;;;;;;-2.40;99.90;;;;;;5069698;28;20373;-81
2024/01/19 02:02:14;;;;;;;;;;;-2.50;99.90;;;;;;5063916;28;19943;-78
2024/01/19 02:04:39;;;;;;;;;;;-2.50;99.90;;;;;;5059795;28;19948;-78
2024/01/19 02:07:05;;;;;;;;;;;-2.40;99.90;;;;;;5058843;28;19958;-79
2024/01/19 02:09:31;;;;;;;;;;;-2.30;99.90;;;;;;5065488;28;19939;-78
2024/01/19 02:11:57;;;;;;;;;;;-2.30;99.90;;;;;;5069416;28;19936;-79
2024/01/19 02:14:22;;;;;;;;;;;-2.40;99.90;;;;;;5072227;28;19931;-79
2024/01/19 02:16:48;;;;;;;;;;;-2.50;99.90;;;;;;5087553;28;19950;-79
2024/01/19 02:19:13;;;;;;;;;;;-2.50;99.90;;;;;;5086543;28;19998;-79
2024/01/19 02:21:39;;;;;;;;;;;-2.50;99.90;;;;;;5092988;28;19921;-77
2024/01/19 02:24:06;;;;;;;;;;;-2.40;99.90;;;;;;5084640;28;19950;-79
2024/01/19 02:26:33;;;;;;;;;;;-2.40;99.90;;;;;;5069575;28;19951;-79
2024/01/19 02:28:58;;;;;;;;;;;-2.50;99.90;;;;;;5067995;28;19938;-80
2024/01/19 02:31:24;;;;;;;;;;;-2.70;99.90;;;;;;5068936;28;19947;-80
2024/01/19 02:33:50;;;;;;;;;;;-2.60;99.90;;;;;;5069764;28;20129;-78
2024/01/19 02:36:15;;;;;;;;;;;-2.60;99.90;;;;;;5064959;28;20015;-79
2024/01/19 02:38:41;;;;;;;;;;;-2.50;99.90;;;;;;5061610;28;20375;-79
2024/01/19 02:41:07;;;;;;;;;;;-2.50;99.90;;;;;;5066121;28;19941;-80
2024/01/19 02:43:32;;;;;;;;;;;-2.40;99.90;;;;;;5065747;28;19969;-80
2024/01/19 02:45:58;;;;;;;;;;;-2.40;99.90;;;;;;5076111;28;20013;-79
2024/01/19 02:48:23;;;;;;;;;;;-2.40;99.90;;;;;;5074050;28;20202;-79
2024/01/19 02:50:49;;;;;;;;;;;-2.30;99.90;;;;;;5075761;28;19940;-79
2024/01/19 02:53:14;;;;;;;;;;;-2.30;99.90;;;;;;5072178;28;19945;-79
2024/01/19 02:55:40;;;;;;;;;;;-2.30;99.90;;;;;;5075827;28;20319;-79
2024/01/19 02:58:05;;;;;;;;;;;-2.40;99.90;;;;;;5068190;28;20066;-80
2024/01/19 03:00:31;;;;;;;;;;;-2.40;99.90;;;;;;5071547;28;19948;-78
2024/01/19 03:02:57;;;;;;;;;;;-2.40;99.90;;;;;;5070332;28;19966;-79
2024/01/19 03:05:22;;;;;;;;;;;-2.50;99.90;;;;;;5072842;28;20345;-78
2024/01/19 03:07:48;;;;;;;;;;;-2.60;99.90;;;;;;5072088;28;19972;-79
2024/01/19 03:10:13;;;;;;;;;;;-2.70;99.90;;;;;;5069505;28;19940;-79
2024/01/19 03:12:39;;;;;;;;;;;-2.70;99.90;;;;;;5071656;28;20007;-77
2024/01/19 03:15:04;;;;;;;;;;;-2.70;99.90;;;;;;5073510;28;19941;-78
2024/01/19 03:17:30;;;;;;;;;;;-2.70;99.90;;;;;;5053714;28;19948;-77
2024/01/19 03:19:56;;;;;;;;;;;-2.70;99.90;;;;;;5069304;28;20034;-79
2024/01/19 03:22:21;;;;;;;;;;;-2.80;99.90;;;;;;5074117;28;19941;-78
2024/01/19 03:24:46;;;;;;;;;;;-2.90;99.90;;;;;;5074807;28;20297;-78
2024/01/19 03:27:13;;;;;;;;;;;-2.90;99.90;;;;;;5078600;28;19928;-78
2024/01/19 03:29:38;;;;;;;;;;;-3.10;99.90;;;;;;5069349;28;19952;-78
2024/01/19 03:32:04;;;;;;;;;;;-3.30;99.90;;;;;;5076393;28;19936;-78
2024/01/19 03:34:29;;;;;;;;;;;-3.30;99.90;;;;;;5070925;28;20347;-78
2024/01/19 03:36:55;;;;;;;;;;;-3.30;99.90;;;;;;5074999;28;20423;-77
2024/01/19 03:39:21;;;;;;;;;;;-3.20;99.90;;;;;;5072787;28;20079;-78
2024/01/19 03:41:47;;;;;;;;;;;-3.10;99.90;;;;;;5077763;28;19958;-79
2024/01/19 03:44:13;;;;;;;;;;;-3.00;99.90;;;;;;5075155;28;20084;-77
2024/01/19 03:46:38;;;;;;;;;;;-3.00;99.90;;;;;;5073592;28;20409;-78
2024/01/19 03:49:04;;;;;;;;;;;-3.00;99.90;;;;;;5073002;28;19930;-78
2024/01/19 03:51:29;;;;;;;;;;;-3.00;99.90;;;;;;5075844;28;19969;-79
2024/01/19 03:53:55;;;;;;;;;;;-2.90;99.90;;;;;;5072328;28;21866;-78
2024/01/19 03:56:20;;;;;;;;;;;-2.80;99.90;;;;;;5077299;28;19935;-77
2024/01/19 03:58:46;;;;;;;;;;;-2.70;99.90;;;;;;5074098;28;20340;-78
2024/01/19 04:01:11;;;;;;;;;;;-2.60;99.90;;;;;;5070177;28;20082;-78
2024/01/19 04:03:36;;;;;;;;;;;-2.60;99.90;;;;;;5072277;28;20219;-77
2024/01/19 04:06:02;;;;;;;;;;;-2.60;99.90;;;;;;5076251;28;19962;-76
2024/01/19 04:08:28;;;;;;;;;;;-2.60;99.90;;;;;;5078309;28;20357;-77
2024/01/19 04:10:54;;;;;;;;;;;-2.60;99.90;;;;;;5077318;28;20070;-76
2024/01/19 04:13:19;;;;;;;;;;;-2.60;99.90;;;;;;5073139;28;20405;-77
2024/01/19 04:15:45;;;;;;;;;;;-2.70;99.90;;;;;;5068185;28;19928;-76
2024/01/19 04:18:10;;;;;;;;;;;-2.80;99.90;;;;;;5070104;28;19935;-76
2024/01/19 04:20:36;;;;;;;;;;;-2.80;99.90;;;;;;5077350;28;19999;-77
2024/01/19 04:23:02;;;;;;;;;;;-2.80;99.90;;;;;;5071417;28;19954;-79
2024/01/19 04:25:28;;;;;;;;;;;-2.90;99.90;;;;;;5073299;28;19940;-77
2024/01/19 04:27:53;;;;;;;;;;;-2.90;99.90;;;;;;5078143;28;19993;-77
2024/01/19 04:30:19;;;;;;;;;;;-2.90;99.90;;;;;;5081759;28;19925;-78
2024/01/19 04:32:44;;;;;;;;;;;-3.10;99.90;;;;;;5098026;28;20030;-77
2024/01/19 04:35:10;;;;;;;;;;;-3.20;99.90;;;;;;5102745;28;19945;-77
2024/01/19 04:37:35;;;;;;;;;;;-3.30;99.90;;;;;;5100199;28;20000;-77
2024/01/19 04:40:00;;;;;;;;;;;-3.40;99.90;;;;;;5099375;28;19953;-77
2024/01/19 04:42:26;;;;;;;;;;;-3.50;99.90;;;;;;5087412;28;19932;-77
2024/01/19 04:44:52;;;;;;;;;;;-3.40;99.90;;;;;;5075346;28;20390;-77
2024/01/19 04:47:17;;;;;;;;;;;-3.50;99.90;;;;;;5077124;28;20422;-78
2024/01/19 04:49:43;;;;;;;;;;;-3.50;99.90;;;;;;5070694;28;20309;-77
2024/01/19 04:52:08;;;;;;;;;;;-3.50;99.90;;;;;;5071249;28;19937;-77
2024/01/19 04:54:34;;;;;;;;;;;-3.60;99.90;;;;;;5070691;28;19928;-78
2024/01/19 04:56:59;;;;;;;;;;;-3.60;99.90;;;;;;5072779;28;19949;-78
2024/01/19 04:59:25;;;;;;;;;;;-3.50;99.90;;;;;;5075376;28;20489;-78
2024/01/19 05:01:50;;;;;;;;;;;-3.50;99.90;;;;;;5070863;28;20371;-78
2024/01/19 05:04:16;;;;;;;;;;;-3.30;99.90;;;;;;5070730;28;19967;-78
2024/01/19 05:06:42;;;;;;;;;;;-3.20;99.90;;;;;;5072284;28;20028;-79
2024/01/19 05:09:07;;;;;;;;;;;-3.20;99.90;;;;;;5078462;28;19934;-79
2024/01/19 05:11:33;;;;;;;;;;;-3.20;99.90;;;;;;5073661;28;19945;-79
2024/01/19 05:13:58;;;;;;;;;;;-3.20;99.90;;;;;;5067101;28;20082;-79
2024/01/19 05:16:24;;;;;;;;;;;-3.20;99.90;;;;;;5077971;28;20336;-78
2024/01/19 05:18:49;;;;;;;;;;;-3.10;99.90;;;;;;5073323;28;20122;-77
2024/01/19 05:21:15;;;;;;;;;;;-3.10;99.90;;;;;;5074257;28;20663;-77
2024/01/19 05:23:40;;;;;;;;;;;-3.10;99.90;;;;;;5072992;28;19941;-79
2024/01/19 05:26:08;;;;;;;;;;;-3.10;99.90;;;;;;5081980;28;20137;-79
2024/01/19 05:28:36;;;;;;;;;;;-3.10;99.90;;;;;;5077071;28;19948;-77
2024/01/19 05:31:02;;;;;;;;;;;-3.10;99.90;;;;;;5073869;28;19963;-77
2024/01/19 05:33:27;;;;;;;;;;;-3.10;99.90;;;;;;5071512;28;20389;-80
2024/01/19 05:35:53;;;;;;;;;;;-3.10;99.90;;;;;;5080916;28;19950;-79
2024/01/19 05:38:18;;;;;;;;;;;-3.20;99.90;;;;;;5078290;28;19949;-78
2024/01/19 05:40:44;;;;;;;;;;;-3.20;99.90;;;;;;5080960;28;20448;-79
2024/01/19 05:43:09;;;;;;;;;;;-3.20;99.90;;;;;;5075765;28;19967;-77
2024/01/19 05:45:35;;;;;;;;;;;-3.30;99.90;;;;;;5079185;28;20023;-78
2024/01/19 05:48:00;;;;;;;;;;;-3.20;99.90;;;;;;5081936;28;19980;-78
2024/01/19 05:50:26;;;;;;;;;;;-3.20;99.90;;;;;;5079534;28;20328;-78
2024/01/19 05:52:51;;;;;;;;;;;-3.10;99.90;;;;;;5076059;28;19965;-79
2024/01/19 05:55:17;;;;;;;;;;;-3.10;99.90;;;;;;5080386;28;20414;-79
2024/01/19 05:57:42;;;;;;;;;;;-3.10;99.90;;;;;;5078106;28;20415;-80
2024/01/19 06:00:08;;;;;;;;;;;-3.10;99.90;;;;;;5074799;28;19934;-80
2024/01/19 06:02:34;;;;;;;;;;;-3.20;99.90;;;;;;5073041;28;20070;-80
2024/01/19 06:04:59;;;;;;;;;;;-3.20;99.90;;;;;;5073426;28;20351;-79
2024/01/19 06:07:25;;;;;;;;;;;-3.40;99.90;;;;;;5071551;28;19954;-79
2024/01/19 06:09:50;;;;;;;;;;;-3.60;99.90;;;;;;5077863;28;19961;-79
2024/01/19 06:12:16;;;;;;;;;;;-3.70;99.90;;;;;;5078301;28;19971;-79
2024/01/19 06:14:42;;;;;;;;;;;-3.80;99.90;;;;;;5075687;28;19960;-79
2024/01/19 06:17:11;;;;;;;;;;;-3.80;99.90;;;;;;5075678;28;19930;-80
2024/01/19 06:19:40;;;;;;;;;;;-3.80;99.90;;;;;;5082373;28;20043;-80
2024/01/19 06:22:06;;;;;;;;;;;-3.70;99.90;;;;;;5074051;28;20022;-80
2024/01/19 06:24:35;;;;;;;;;;;-3.60;99.90;;;;;;5074230;28;20554;-80
2024/01/19 06:27:00;;;;;;;;;;;-3.50;99.90;;;;;;5073910;28;20047;-80
2024/01/19 06:29:26;;;;;;;;;;;-3.50;99.90;;;;;;5081438;28;20043;-80
2024/01/19 06:31:52;;;;;;;;;;;-3.40;99.90;;;;;;5072815;28;19939;-79
2024/01/19 06:34:18;;;;;;;;;;;-3.50;99.90;;;;;;5073982;28;20440;-80
2024/01/19 06:36:44;;;;;;;;;;;-3.40;99.90;;;;;;5073227;28;19964;-79
2024/01/19 06:39:11;;;;;;;;;;;-3.50;99.90;;;;;;5070185;28;19957;-79
2024/01/19 06:41:44;;;;;;;;;;;-3.80;99.90;;;;;;5075309;28;20068;-79
2024/01/19 06:44:10;;;;;;;;;;;-3.90;99.90;;;;;;5071881;28;20461;-80
2024/01/19 06:46:36;;;;;;;;;;;-3.90;99.90;;;;;;5076055;28;19949;-79
2024/01/19 06:49:01;;;;;;;;;;;-3.90;99.90;;;;;;5080425;28;19929;-80
2024/01/19 06:51:28;;;;;;;;;;;-3.90;99.90;;;;;;5101340;28;19986;-80
2024/01/19 06:53:54;;;;;;;;;;;-3.90;99.90;;;;;;5096812;28;19941;-82
2024/01/19 06:56:20;;;;;;;;;;;-3.80;99.90;;;;;;5100383;28;19958;-81
2024/01/19 06:58:45;;;;;;;;;;;-3.80;99.90;;;;;;5103603;28;19930;-81
2024/01/19 07:01:11;;;;;;;;;;;-3.70;99.90;;;;;;5094313;28;19953;-81
2024/01/19 07:03:36;;;;;;;;;;;-3.60;99.90;;;;;;5082362;28;19957;-82
2024/01/19 07:06:02;;;;;;;;;;;-3.60;99.90;;;;;;5078579;28;20434;-80
2024/01/19 07:08:28;;;;;;;;;;;-3.60;99.90;;;;;;5075808;28;19939;-81
2024/01/19 07:10:53;;;;;;;;;;;-3.60;99.90;;;;;;5075148;28;20158;-81
2024/01/19 07:13:19;;;;;;;;;;;-3.70;99.90;;;;;;5073925;28;19949;-80
2024/01/19 07:15:44;;;;;;;;;;;-3.90;99.90;;;;;;5079005;28;19953;-79
2024/01/19 07:18:10;;;;;;;;;;;-4.00;99.90;;;;;;5074698;28;20425;-82
2024/01/19 07:20:36;;;;;;;;;;;-4.00;99.90;;;;;;5074182;28;19945;-79
2024/01/19 07:23:03;;;;;;;;;;;-4.00;99.90;;;;;;5071212;28;19933;-80
2024/01/19 07:25:29;;;;;;;;;;;-3.90;99.90;;;;;;5079280;28;20015;-80
2024/01/19 07:27:54;;;;;;;;;;;-3.80;99.90;;;;;;5072690;28;20040;-77
2024/01/19 07:30:20;;;;;;;;;;;-3.80;99.90;;;;;;5073419;28;20040;-80
2024/01/19 07:32:45;;;;;;;;;;;-3.80;99.90;;;;;;5072205;28;20149;-82
2024/01/19 07:35:11;;;;;;;;;;;-3.90;99.90;;;;;;5078889;28;19932;-81
2024/01/19 07:37:36;;;;;;;;;;;-4.00;99.90;;;;;;5072205;28;19978;-79
2024/01/19 07:40:03;;;;;;;;;;;-4.20;99.90;;;;;;5071989;28;19933;-81
2024/01/19 07:42:29;;;;;;;;;;;-4.20;99.90;;;;;;5069172;28;20642;-79
2024/01/19 07:44:54;;;;;;;;;;;-4.30;99.90;;;;;;5072808;28;20066;-84
2024/01/19 07:47:20;;;;;;;;;;;-4.40;99.90;;;;;;5072222;28;19934;-83
2024/01/19 07:49:45;;;;;;;;;;;-4.30;99.90;;;;;;5068757;28;20968;-79
2024/01/19 07:52:11;;;;;;;;;;;-4.30;99.90;;;;;;5062265;28;20024;-80
2024/01/19 07:54:36;;;;;;;;;;;-4.10;99.90;;;;;;5068701;28;20044;-80
2024/01/19 07:57:02;;;;;;;;;;;-4.00;99.90;;;;;;5074788;28;19957;-80
2024/01/19 07:59:27;;;;;;;;;;;-3.90;99.90;;;;;;5073740;28;20324;-81
2024/01/19 08:01:53;;;;;;;;;;;-3.80;99.90;;;;;;5069837;28;19932;-80
2024/01/19 08:04:18;;;;;;;;;;;-3.70;99.90;;;;;;5071746;28;20057;-81
2024/01/19 08:06:44;;;;;;;;;;;-3.70;99.90;;;;;;5062529;28;20279;-82
2024/01/19 08:09:13;;;;;;;;;;;-3.70;99.90;;;;;;5066619;28;20256;-80
2024/01/19 08:11:39;;;;;;;;;;;-3.80;99.90;;;;;;5072715;28;19935;-81
2024/01/19 08:14:05;;;;;;;;;;;-3.80;99.90;;;;;;5066070;28;19936;-80
2024/01/19 08:16:30;;;;;;;;;;;-3.90;99.90;;;;;;5068046;28;19954;-80
2024/01/19 08:18:56;;;;;;;;;;;-3.80;99.90;;;;;;5072619;28;19928;-80
2024/01/19 08:21:22;;;;;;;;;;;-3.60;99.90;;;;;;5067370;28;19936;-77
2024/01/19 08:23:48;;;;;;;;;;;-3.50;99.90;;;;;;5061906;28;20498;-81
2024/01/19 08:26:13;;;;;;;;;;;-3.50;99.90;;;;;;5062434;28;20615;-80
2024/01/19 08:28:39;;;;;;;;;;;-3.20;99.90;;;;;;5065435;28;20160;-81
2024/01/19 08:31:10;;;;;;;;;;;-3.10;99.90;;;;;;5067774;28;19994;-80
2024/01/19 08:33:36;;;;;;;;;;;-3.00;99.90;;;;;;5064384;28;19990;-79
2024/01/19 08:36:01;;;;;;;;;;;-2.90;99.90;;;;;;5063490;28;19992;-80
2024/01/19 08:38:27;;;;;;;;;;;-2.90;99.90;;;;;;5062457;28;19983;-80
2024/01/19 08:40:52;;;;;;;;;;;-2.80;99.90;;;;;;5066454;28;20412;-80
2024/01/19 08:43:18;;;;;;;;;;;-2.80;99.90;;;;;;5058228;28;20273;-78
2024/01/19 08:45:43;;;;;;;;;;;-2.70;99.90;;;;;;5047107;28;20522;-79
2024/01/19 08:48:09;;;;;;;;;;;-2.60;99.90;;;;;;5021097;28;20412;-81
2024/01/19 08:50:34;;;;;;;;;;;-2.50;99.90;;;;;;5024586;28;19939;-77
2024/01/19 08:53:01;;;;;;;;;;;-2.30;99.90;;;;;;5016103;28;20301;-78
2024/01/19 08:55:27;;;;;;;;;;;-2.10;99.90;;;;;;5023894;28;19938;-77
2024/01/19 08:57:53;;;;;;;;;;;-1.90;99.90;;;;;;5026730;28;20447;-74
2024/01/19 09:00:18;;;;;;;;;;;-1.70;99.90;;;;;;5022505;28;20531;-76
2024/01/19 09:02:46;;;;;;;;;;;-1.50;99.90;;;;;;5010537;28;19945;-78
2024/01/19 09:05:12;;;;;;;;;;;-1.30;99.90;;;;;;5014422;28;20162;-76
2024/01/19 09:07:37;;;;;;;;;;;-1.10;99.90;;;;;;5041618;28;19948;-77
2024/01/19 09:10:03;;;;;;;;;;;-1.00;99.90;;;;;;5049892;28;19943;-80
2024/01/19 09:12:28;;;;;;;;;;;-0.80;99.90;;;;;;5043694;28;19924;-80
2024/01/19 09:14:54;;;;;;;;;;;-0.60;99.90;;;;;;5039670;28;20753;-79
2024/01/19 09:17:19;;;;;;;;;;;-0.60;99.90;;;;;;5019759;28;20480;-81
2024/01/19 09:19:47;;;;;;;;;;;-0.40;99.90;;;;;;5023589;28;19932;-80
2024/01/19 09:22:13;;;;;;;;;;;-0.30;99.90;;;;;;5022496;28;20058;-76
2024/01/19 09:24:38;;;;;;;;;;;-0.20;99.90;;;;;;5025038;28;19982;-84
2024/01/19 09:27:04;;;;;;;;;;;0.00;99.90;;;;;;5022874;28;20295;-82
2024/01/19 09:29:29;;;;;;;;;;;0.10;99.90;;;;;;5009003;28;19960;-78
2024/01/19 09:31:55;;;;;;;;;;;0.30;99.90;;;;;;5002569;28;20194;-79
2024/01/19 09:34:20;;;;;;;;;;;0.40;99.90;;;;;;5011041;28;19937;-78
2024/01/19 09:36:46;;;;;;;;;;;0.70;99.90;;;;;;5017746;28;19960;-79
2024/01/19 09:39:11;;;;;;;;;;;1.80;99.90;;;;;;5016476;28;20731;-76
2024/01/19 09:41:38;;;;;;;;;;;3.50;99.90;;;;;;5022036;28;19937;-77
2024/01/19 09:44:06;;;;;;;;;;;5.60;99.90;;;;;;5037140;28;19965;-76
2024/01/19 09:46:36;;;;;;;;;;;7.70;78.30;;;;;;5046110;28;20572;-83
2024/01/19 09:49:02;;;;;;;;;;;9.50;59.30;;;;;;5042046;28;19972;-76
2024/01/19 09:51:34;;;;;;;;;;;11.20;52.50;;;;;;5038351;28;20424;-75
2024/01/19 09:54:03;;;;;;;;;;;12.40;48.00;;;;;;5044008;28;20622;-77
2024/01/19 09:56:29;;;;;;;;;;;12.80;44.40;;;;;;5042963;28;19941;-79
2024/01/19 09:58:55;;;;;;;;;;;13.00;44.10;;;;;;5042598;28;20087;-76
2024/01/19 10:01:21;;;;;;;;;;;13.00;43.40;;;;;;5042136;28;19943;-76
2024/01/19 10:03:48;;;;;;;;;;;13.30;43.40;;;;;;5038321;28;19969;-80
2024/01/19 10:06:13;;;;;;;;;;;14.00;42.40;;;;;;5039635;28;20043;-77
2024/01/19 10:08:40;;;;;;;;;;;14.50;40.20;;;;;;5025306;28;19935;-77
2024/01/19 10:11:08;;;;;;;;;;;15.10;39.20;;;;;;5033064;28;19931;-78
2024/01/19 10:13:33;;;;;;;;;;;15.60;37.70;;;;;;5046599;28;20355;-78
2024/01/19 10:15:59;;;;;;;;;;;16.00;37.40;;;;;;5044414;28;20056;-80
2024/01/19 10:18:25;;;;;;;;;;;16.80;36.30;;;;;;5052056;28;20062;-78
2024/01/19 10:20:51;;;;;;;;;;;17.20;35.10;;;;;;5052832;28;20000;-78
2024/01/19 10:23:21;;;;;;;;;;;17.90;34.70;;;;;;5057010;28;20491;-79
2024/01/19 10:25:47;;;;;;;;;;;18.50;33.00;;;;;;5044160;28;19962;-78
2024/01/19 10:28:28;;;;;;;;;;;18.80;32.30;;;;;;5047747;28;19950;-77
2024/01/19 10:30:53;;;;;;;;;;;19.10;31.80;;;;;;5053116;28;19931;-80
2024/01/19 10:33:19;;;;;;;;;;;19.40;32.10;;;;;;5043211;28;20001;-78
2024/01/19 10:35:44;;;;;;;;;;;17.60;33.00;;;;;;5044491;28;19948;-77
2024/01/19 10:38:10;;;;;;;;;;;15.30;36.90;;;;;;5045663;28;19937;-76
2024/01/19 10:40:36;;;;;;;;;;;13.50;41.20;;;;;;5043524;28;20449;-76
2024/01/19 10:43:03;;;;;;;;;;;13.90;41.80;;;;;;5045885;28;20375;-79
2024/01/19 10:45:30;;;;;;;;;;;15.50;40.40;;;;;;5049166;28;19940;-78
2024/01/19 10:47:59;;;;;;;;;;;17.10;36.70;;;;;;5045778;28;19949;-78
2024/01/19 10:50:28;;;;;;;;;;;18.20;34.10;;;;;;5047567;28;19953;-79
2024/01/19 10:52:55;;;;;;;;;;;19.10;32.60;;;;;;5044853;28;19936;-79
2024/01/19 10:55:22;;;;;;;;;;;19.70;31.60;;;;;;5049925;28;20991;-85
2024/01/19 10:57:49;;;;;;;;;;;20.50;30.10;;;;;;5044301;28;20048;-80
2024/01/19 11:00:20;;;;;;;;;;;20.70;29.30;;;;;;5052675;28;19954;-84
2024/01/19 11:02:47;;;;;;;;;;;19.50;29.90;;;;;;5046754;28;19941;-80
2024/01/19 11:05:13;;;;;;;;;;;19.10;30.80;;;;;;5054034;28;19935;-82
2024/01/19 11:07:39;;;;;;;;;;;18.60;31.80;;;;;;5049696;28;19971;-81
2024/01/19 11:10:06;;;;;;;;;;;18.60;32.80;;;;;;5057807;28;19933;-81
2024/01/19 11:12:35;;;;;;;;;;;18.00;32.80;;;;;;5068330;28;19976;-81
2024/01/19 11:15:01;;;;;;;;;;;17.10;34.80;;;;;;5073401;28;19930;-86
2024/01/19 11:17:27;;;;;;;;;;;16.10;36.00;;;;;;5076624;28;19994;-86
2024/01/19 11:19:52;;;;;;;;;;;14.80;38.90;;;;;;5059911;28;20328;-85
2024/01/19 11:22:18;;;;;;;;;;;13.80;40.60;;;;;;5044549;28;19987;-84
2024/01/19 11:24:46;;;;;;;;;;;12.90;43.00;;;;;;5045324;28;19959;-83
2024/01/19 11:27:14;;;;;;;;;;;13.00;43.90;;;;;;5053795;28;20048;-84
2024/01/19 11:29:41;;;;;;;;;;;13.40;44.00;;;;;;5066214;28;20028;-82
2024/01/19 11:32:07;;;;;;;;;;;15.00;41.00;;;;;;5070253;28;19977;-88
2024/01/19 11:34:50;;;;;;;;;;;16.40;38.00;;;;;;5065116;28;20267;-89
2024/01/19 11:37:35;;;;;;;;;;;17.10;36.30;;;;;;5048535;28;19938;-87
2024/01/19 11:40:00;;;;;;;;;;;17.70;34.80;;;;;;5056022;28;19947;-84
2024/01/19 11:42:46;;;;;;;;;;;18.60;33.70;;;;;;5055370;28;19939;-86
2024/01/19 11:45:31;;;;;;;;;;;18.70;32.90;;;;;;5034615;28;19956;-85
2024/01/19 11:47:57;;;;;;;;;;;19.50;31.00;;;;;;5050072;28;19954;-87
2024/01/19 11:50:42;;;;;;;;;;;19.50;31.00;;;;;;5054503;28;19987;-87
2024/01/19 11:53:08;;;;;;;;;;;18.90;31.70;;;;;;5050580;28;20091;-86
2024/01/19 11:55:34;;;;;;;;;;;16.80;34.50;;;;;;5047070;28;19946;-82
2024/01/19 11:58:19;;;;;;;;;;;16.40;36.30;;;;;;5042826;28;20423;-78
2024/01/19 12:00:46;;;;;;;;;;;16.80;35.90;;;;;;5056585;28;20117;-78
2024/01/19 12:03:12;;;;;;;;;;;16.40;35.80;;;;;;5044205;28;19931;-80
2024/01/19 12:05:40;;;;;;;;;;;16.00;37.70;;;;;;5043565;28;19932;-78
2024/01/19 12:08:06;;;;;;;;;;;16.70;35.60;;;;;;5047571;28;19952;-81
2024/01/19 12:10:31;;;;;;;;;;;16.50;36.50;;;;;;5048791;28;19939;-79
2024/01/19 12:12:57;;;;;;;;;;;17.40;34.80;;;;;;5050508;28;19929;-79
2024/01/19 12:15:22;;;;;;;;;;;17.10;34.80;;;;;;5046661;28;20317;-78
2024/01/19 12:17:48;;;;;;;;;;;17.30;34.60;;;;;;5056201;28;20184;-79
2024/01/19 12:20:15;;;;;;;;;;;16.50;35.40;;;;;;5052531;28;19936;-78
2024/01/19 12:22:44;;;;;;;;;;;17.10;34.70;;;;;;5052548;28;20039;-76
2024/01/19 12:25:25;;;;;;;;;;;17.80;33.40;;;;;;5048969;28;19952;-77
2024/01/19 12:28:06;;;;;;;;;;;18.40;33.90;;;;;;5049708;28;20436;-75
2024/01/19 12:30:33;;;;;;;;;;;19.00;31.10;;;;;;5034329;28;19972;-76
2024/01/19 12:33:12;;;;;;;;;;;19.30;31.70;;;;;;5047546;28;20408;-75
2024/01/19 12:35:38;;;;;;;;;;;19.60;30.40;;;;;;5043394;28;19980;-76
2024/01/19 12:38:03;;;;;;;;;;;20.40;29.70;;;;;;5054254;28;19983;-77
2024/01/19 12:40:30;;;;;;;;;;;21.10;29.10;;;;;;5048387;28;20078;-76
2024/01/19 12:43:01;;;;;;;;;;;20.60;28.60;;;;;;5044383;28;20000;-77
2024/01/19 12:45:28;;;;;;;;;;;19.70;29.50;;;;;;5029010;28;23333;-76
2024/01/19 12:47:54;;;;;;;;;;;18.90;31.00;;;;;;5045540;28;19952;-76
2024/01/19 12:50:20;;;;;;;;;;;17.30;32.50;;;;;;5050290;28;20133;-78
2024/01/19 12:52:45;;;;;;;;;;;16.10;34.90;;;;;;5049929;28;19969;-78
2024/01/19 12:55:12;;;;;;;;;;;15.60;37.60;;;;;;5050326;28;19942;-76
2024/01/19 12:57:38;;;;;;;;;;;16.30;37.20;;;;;;5048443;28;20086;-80
2024/01/19 13:00:13;;;;;;;;;;;16.30;35.40;;;;;;5055932;28;19947;-81
2024/01/19 13:02:39;;;;;;;;;;;16.10;36.10;;;;;;5053563;28;19939;-79
2024/01/19 13:05:06;;;;;;;;;;;16.50;36.90;;;;;;5049760;28;19944;-82
2024/01/19 13:07:32;;;;;;;;;;;17.60;35.20;;;;;;5053321;28;19938;-79
2024/01/19 13:10:00;;;;;;;;;;;18.60;32.70;;;;;;5057288;28;19935;-80
2024/01/19 13:12:26;;;;;;;;;;;19.00;31.30;;;;;;5069428;28;19997;-77
2024/01/19 13:14:51;;;;;;;;;;;18.70;31.60;;;;;;5083201;28;19930;-81
2024/01/19 13:17:25;;;;;;;;;;;18.40;32.60;;;;;;5073624;28;19930;-80
2024/01/19 13:19:51;;;;;;;;;;;18.70;31.40;;;;;;5066176;28;19937;-84
2024/01/19 13:22:17;;;;;;;;;;;17.40;33.10;;;;;;5054970;28;20514;-85
2024/01/19 13:24:44;;;;;;;;;;;17.00;34.40;;;;;;5050698;28;19944;-79
2024/01/19 13:27:11;;;;;;;;;;;17.00;35.00;;;;;;5046827;28;20382;-82
2024/01/19 13:29:37;;;;;;;;;;;16.30;35.50;;;;;;5046229;28;19941;-82
2024/01/19 13:32:02;;;;;;;;;;;16.50;35.70;;;;;;5050842;28;19933;-80
2024/01/19 13:34:28;;;;;;;;;;;17.00;35.40;;;;;;5047528;28;20027;-81
2024/01/19 13:36:53;;;;;;;;;;;17.60;33.70;;;;;;5047195;28;19982;-82
2024/01/19 13:39:19;;;;;;;;;;;17.10;34.70;;;;;;5052866;28;20033;-85
2024/01/19 13:41:45;;;;;;;;;;;17.40;34.70;;;;;;5049868;28;20574;-78
2024/01/19 13:44:10;;;;;;;;;;;18.20;32.80;;;;;;5045785;28;19951;-79
2024/01/19 13:46:36;;;;;;;;;;;19.50;32.60;;;;;;5047370;28;19965;-86
2024/01/19 13:49:01;;;;;;;;;;;19.80;30.70;;;;;;5052049;28;19950;-81
2024/01/19 13:51:27;;;;;;;;;;;19.20;30.80;;;;;;5052402;28;20505;-80
2024/01/19 13:53:52;;;;;;;;;;;19.50;31.70;;;;;;5054776;28;19942;-83
2024/01/19 13:56:18;;;;;;;;;;;20.20;30.00;;;;;;5053738;28;19946;-78
2024/01/19 13:58:44;;;;;;;;;;;21.10;29.60;;;;;;5049352;28;19917;-86
2024/01/19 14:01:10;;;;;;;;;;;21.60;28.60;;;;;;5054583;28;20464;-87
2024/01/19 14:03:36;;;;;;;;;;;21.80;28.30;;;;;;5048829;28;19983;-79
2024/01/19 14:06:02;;;;;;;;;;;21.30;28.30;;;;;;5050325;28;19951;-82
2024/01/19 14:08:28;;;;;;;;;;;19.30;31.30;;;;;;5050140;28;20310;-85
2024/01/19 14:10:54;;;;;;;;;;;18.90;33.00;;;;;;5052116;28;20014;-80
2024/01/19 14:13:20;;;;;;;;;;;18.90;32.40;;;;;;5065497;28;20037;-81